Bend, OR (97702)

9:48 AM PST on February 21, 2017 (GMT -0800)
MARNO3 | | Change Station

Elev 3896 ft 43.99 °N, 121.38 °W | Updated 36 minutes ago

Clear
Clear
35.0 °F
Feels Like 35.0 °F
N
-
Wind Variable Wind from North

Today
High -- | Low -- °F
--% Chance of Precip.
Yesterday
High -- | Low -- °F
Precip. -- in
Pressure 29.80 in
Visibility 10.0 miles
Clouds Few 10000 ft
Dew Point Not available.
Humidity Not available.
Rainfall 0.19 in
Snow Depth Not available.
6:54 AM 5:43 PM
Waning Crescent, 24% visible
METAR KBDN 211735Z AUTO 23012G19KT 10SM FEW100 03/M01 A2980 RMK AO2
Pressure 29.80 in
Visibility 10.0 miles
Clouds Few 10000 ft
Dew Point Not available.
Humidity Not available.
Rainfall 0.19 in
Snow Depth Not available.
6:54 AM 5:43 PM
Waning Crescent, 24% visible
METAR KBDN 211735Z AUTO 23012G19KT 10SM FEW100 03/M01 A2980 RMK AO2

Get Your Daily Forecast Email!

Thanks for signing up!

Be on the lookout for a verification email in your inbox.

You'll start receiving the daily forecast at 8 AM.

×

10-Day Weather Forecast

Almanac

Astronomy

Feb. 21, 2017 Rise Set
Actual Time
Civil Twilight
Nautical Twilight
Astronomical Twilight
Moon
Length of Visible Light
Length of Day
Tomorrow will be .
, % of the Moon is Illuminated

Today's Extremes

State Highs State Lows

Community

WunderPhotos

Upload Photos

1,962,540 photos uploaded!

WunderBlog® & News

Nearby

Air Quality

  Air Quality AQ Index Pollutant
Not available.

Snow Depth

Station Depth Elevation

Earthquake Activity

City Distance Mag. Time & Date
Minimum magnitude displayed is 2.5.

Coastal Water Temperatures

Place Temperature

Stations

Nearby Weather Stations

Station Location Temp. Windchill Dew Point Humidity Wind Precip. Elev Updated Type
                   

Watches & Warnings

There are currently no watches in effect.